createdAt,value
2022-12-13T00:00:34.515Z,12.43
2022-12-13T00:05:59.168Z,10.90
2022-12-13T00:11:03.879Z,15.63
2022-12-13T00:16:11.131Z,15.85
2022-12-13T00:21:19.548Z,12.82
2022-12-13T00:26:25.654Z,13.05
2022-12-13T00:36:59.178Z,12.68
2022-12-13T00:42:02.985Z,12.55
2022-12-13T00:47:06.599Z,12.23
2022-12-13T00:52:11.537Z,10.95
2022-12-13T00:57:15.207Z,12.43
2022-12-13T01:02:18.545Z,11.98
2022-12-13T01:07:23.264Z,11.13
2022-12-13T01:12:26.614Z,12.15
2022-12-13T01:17:30.747Z,14.88
2022-12-13T01:22:35.446Z,12.55
2022-12-13T01:27:39.027Z,11.82
2022-12-13T01:32:42.371Z,11.10
2022-12-13T01:37:47.088Z,14.02
2022-12-13T01:42:50.740Z,12.00
2022-12-13T01:47:57.182Z,13.07
2022-12-13T01:53:04.640Z,11.80
2022-12-13T01:58:08.031Z,13.75
2022-12-13T02:03:21.586Z,13.25
2022-12-13T02:08:27.269Z,12.10
2022-12-13T02:13:30.702Z,10.10
2022-12-13T02:18:48.263Z,11.77
2022-12-13T02:24:17.240Z,10.75
2022-12-13T02:29:47.156Z,13.35
2022-12-13T02:34:58.608Z,11.50
2022-12-13T02:40:08.323Z,12.55
2022-12-13T02:45:20.659Z,12.13
2022-12-13T02:50:27.208Z,10.27
2022-12-13T02:55:32.508Z,12.50
2022-12-13T03:00:45.686Z,12.65
2022-12-13T03:06:16.055Z,14.60
2022-12-13T03:11:21.422Z,10.43
2022-12-13T03:16:30.169Z,11.15
2022-12-13T03:21:47.039Z,10.63
2022-12-13T03:26:52.005Z,12.43
2022-12-13T03:31:55.835Z,9.95
2022-12-13T03:37:00.963Z,12.27
2022-12-13T03:42:04.477Z,10.88
2022-12-13T03:47:08.021Z,9.15
2022-12-13T03:52:12.695Z,8.05
2022-12-13T03:57:16.341Z,10.75
2022-12-13T04:02:31.346Z,10.13
2022-12-13T04:07:36.556Z,12.60
2022-12-13T04:13:05.832Z,12.30
2022-12-13T04:18:09.254Z,13.75
2022-12-13T04:23:14.594Z,10.95
2022-12-13T04:28:22.114Z,10.55
2022-12-13T04:33:26.327Z,11.73
2022-12-13T04:38:31.435Z,12.77
2022-12-13T04:43:34.833Z,10.18
2022-12-13T04:48:38.424Z,10.40
2022-12-13T04:53:43.205Z,11.30
2022-12-13T04:58:46.602Z,11.65
2022-12-13T05:03:50.071Z,12.05
2022-12-13T05:08:55.029Z,13.75
2022-12-13T05:14:04.401Z,11.98
2022-12-13T05:19:07.832Z,15.07
2022-12-13T05:24:12.572Z,13.85
2022-12-13T05:29:15.922Z,16.63
2022-12-13T05:34:19.301Z,13.30
2022-12-13T05:39:27.824Z,14.10
2022-12-13T05:44:33.413Z,14.48
2022-12-13T05:49:39.796Z,13.10
2022-12-13T05:54:44.670Z,18.25
2022-12-13T05:59:48.046Z,16.20
2022-12-13T06:04:51.391Z,19.73
2022-12-13T06:10:10.108Z,15.30
2022-12-13T06:15:22.455Z,15.70
2022-12-13T06:20:26.673Z,16.67
2022-12-13T06:25:32.081Z,15.63
2022-12-13T06:30:35.722Z,17.45
2022-12-13T06:35:46.280Z,19.05
2022-12-13T06:40:51.834Z,16.33
2022-12-13T06:45:55.263Z,16.80
2022-12-13T06:51:01.643Z,15.55
2022-12-13T06:56:08.198Z,17.00
2022-12-13T07:01:14.884Z,15.10
2022-12-13T07:06:27.229Z,16.75
2022-12-13T07:11:33.183Z,17.45
2022-12-13T07:16:37.691Z,15.77
2022-12-13T07:21:41.088Z,17.85
2022-12-13T07:26:46.345Z,16.95
2022-12-13T07:31:49.749Z,17.98
2022-12-13T07:36:53.291Z,18.02
2022-12-13T07:41:58.566Z,16.33
2022-12-13T07:47:02.135Z,14.93
2022-12-13T07:52:05.896Z,18.30
2022-12-13T07:57:10.651Z,24.05
2022-12-13T08:02:14.844Z,19.42
2022-12-13T08:07:18.648Z,18.50
2022-12-13T08:12:23.614Z,15.23
2022-12-13T08:17:27.006Z,17.02
2022-12-13T08:22:36.064Z,17.17
2022-12-13T08:27:42.899Z,15.18
2022-12-13T08:32:46.702Z,12.70
2022-12-13T08:37:50.079Z,12.02
2022-12-13T08:42:56.538Z,12.30
2022-12-13T08:48:00.657Z,13.13
2022-12-13T08:53:04.049Z,13.90
2022-12-13T08:58:09.160Z,12.80
2022-12-13T09:03:12.519Z,15.13
2022-12-13T09:08:24.577Z,14.18
2022-12-13T09:13:32.899Z,13.48
2022-12-13T09:18:37.418Z,13.07
2022-12-13T09:23:46.021Z,13.18
2022-12-13T09:28:51.182Z,11.75
2022-12-13T09:33:54.626Z,13.05
2022-12-13T09:38:59.301Z,11.20
2022-12-13T09:44:32.275Z,14.07
2022-12-13T09:49:36.708Z,14.40
2022-12-13T09:54:48.295Z,11.95
2022-12-13T09:59:59.928Z,13.03
2022-12-13T10:05:22.679Z,16.43
2022-12-13T10:10:28.261Z,12.18
2022-12-13T10:15:36.709Z,13.68
2022-12-13T10:20:40.225Z,8.80
2022-12-13T10:25:50.992Z,12.10
2022-12-13T10:30:57.162Z,11.65
2022-12-13T10:36:07.028Z,11.07
2022-12-13T10:41:32.735Z,10.50
2022-12-13T10:46:38.624Z,11.13
2022-12-13T10:51:42.456Z,13.57
2022-12-13T10:56:49.977Z,11.23
2022-12-13T11:01:55.574Z,10.65
2022-12-13T11:07:00.791Z,11.55
2022-12-13T11:12:12.139Z,12.23
2022-12-13T11:17:21.384Z,11.57
2022-12-13T11:22:27.867Z,10.77
2022-12-13T11:27:56.532Z,10.80
2022-12-13T11:33:19.090Z,10.32
2022-12-13T11:38:32.364Z,9.23
2022-12-13T11:48:49.131Z,11.63
2022-12-13T11:53:57.734Z,10.73
2022-12-13T11:59:20.357Z,10.68
2022-12-13T12:04:37.894Z,10.73
2022-12-13T12:09:49.663Z,11.82
2022-12-13T12:14:59.189Z,12.88
2022-12-13T12:20:23.927Z,10.93
2022-12-13T12:25:37.135Z,12.18
2022-12-13T12:30:52.358Z,11.93
2022-12-13T12:36:26.776Z,9.65
2022-12-13T12:47:18.302Z,11.32
2022-12-13T12:52:30.791Z,11.05
2022-12-13T12:57:45.988Z,10.75
2022-12-13T13:03:01.695Z,12.40
2022-12-13T13:08:14.010Z,11.20
2022-12-13T13:13:45.962Z,10.82
2022-12-13T13:18:52.335Z,12.18
2022-12-13T13:24:14.964Z,11.57
2022-12-13T13:29:36.917Z,12.40
2022-12-13T13:34:42.670Z,10.68
2022-12-13T13:40:02.638Z,11.15
2022-12-13T13:45:24.431Z,11.68
2022-12-13T13:51:28.424Z,11.13
2022-12-13T13:56:54.550Z,9.65
2022-12-13T14:02:32.603Z,8.20
2022-12-13T14:08:10.140Z,7.60
2022-12-13T14:13:58.481Z,9.05
2022-12-13T14:19:43.573Z,8.68
2022-12-13T14:24:54.914Z,8.80
2022-12-13T14:29:59.520Z,9.25
2022-12-13T14:35:25.365Z,9.85
2022-12-13T14:40:32.326Z,10.18
2022-12-13T14:45:37.937Z,11.32
2022-12-13T14:50:45.623Z,14.93
2022-12-13T14:56:05.331Z,20.17
2022-12-13T15:01:29.749Z,20.05
2022-12-13T15:06:34.944Z,21.35
2022-12-13T15:11:38.424Z,17.95
2022-12-13T15:16:47.861Z,17.90
2022-12-13T15:22:02.417Z,27.90
2022-12-13T15:27:06.643Z,29.80
2022-12-13T15:32:16.326Z,21.85
2022-12-13T15:37:29.089Z,32.28
2022-12-13T15:42:36.540Z,30.55
2022-12-13T15:47:46.744Z,32.72
2022-12-13T15:53:01.695Z,28.05
